createdAt,value
2018-03-18T00:01:36.677Z,6.20
2018-03-18T00:04:03.001Z,6.13
2018-03-18T00:06:29.347Z,7.37
2018-03-18T00:08:55.651Z,6.50
2018-03-18T00:11:22.840Z,6.70
2018-03-18T00:13:49.193Z,6.97
2018-03-18T00:16:15.487Z,6.57
2018-03-18T00:18:41.804Z,6.27
2018-03-18T00:21:08.126Z,5.90
2018-03-18T00:23:35.207Z,5.67
2018-03-18T00:26:02.524Z,6.03
2018-03-18T00:28:29.594Z,6.00
2018-03-18T00:30:55.935Z,6.73
2018-03-18T00:33:22.259Z,6.50
2018-03-18T00:35:49.075Z,6.60
2018-03-18T00:38:16.189Z,5.70
2018-03-18T00:40:42.507Z,5.67
2018-03-18T00:43:08.790Z,5.50
2018-03-18T00:45:35.833Z,6.67
2018-03-18T00:48:02.168Z,5.30
2018-03-18T00:50:28.496Z,5.20
2018-03-18T00:52:55.589Z,5.33
2018-03-18T00:55:22.085Z,4.90
2018-03-18T00:57:49.142Z,5.60
2018-03-18T01:00:15.497Z,6.10
2018-03-18T01:02:41.780Z,5.60
2018-03-18T01:05:08.093Z,6.00
2018-03-18T01:07:34.397Z,6.97
2018-03-18T01:10:00.719Z,5.80
2018-03-18T01:12:27.019Z,5.73
2018-03-18T01:14:54.019Z,5.17
2018-03-18T01:17:20.326Z,5.70
2018-03-18T01:19:46.631Z,5.40
2018-03-18T01:22:13.645Z,5.23
2018-03-18T01:24:40.012Z,5.60
2018-03-18T01:27:06.296Z,5.57
2018-03-18T01:29:33.527Z,6.07
2018-03-18T01:31:59.854Z,5.77
2018-03-18T01:34:26.164Z,6.30
2018-03-18T01:36:52.484Z,5.20
2018-03-18T01:39:19.509Z,5.60
2018-03-18T01:41:45.840Z,6.00
2018-03-18T01:44:12.112Z,6.10
2018-03-18T01:46:38.384Z,4.80
2018-03-18T01:49:04.674Z,6.13
2018-03-18T01:51:31.497Z,7.10
2018-03-18T01:53:58.623Z,5.80
2018-03-18T01:56:24.943Z,6.30
2018-03-18T01:58:51.240Z,6.20
2018-03-18T02:01:17.533Z,5.40
2018-03-18T02:03:44.581Z,5.47
2018-03-18T02:06:11.591Z,5.80
2018-03-18T02:08:37.853Z,5.83
2018-03-18T02:11:04.930Z,5.57
2018-03-18T02:13:31.227Z,5.27
2018-03-18T02:15:57.515Z,6.30
2018-03-18T02:18:23.815Z,5.30
2018-03-18T02:20:50.126Z,5.97
2018-03-18T02:23:17.164Z,6.47
2018-03-18T02:25:44.942Z,6.57
2018-03-18T02:28:12.046Z,6.20
2018-03-18T02:30:39.104Z,5.63
2018-03-18T02:33:05.409Z,6.00
2018-03-18T02:35:31.745Z,6.17
2018-03-18T02:37:58.098Z,6.30
2018-03-18T02:40:24.406Z,6.00
2018-03-18T02:42:50.769Z,5.63
2018-03-18T02:45:17.071Z,5.27
2018-03-18T02:47:43.399Z,6.50
2018-03-18T02:50:09.683Z,6.10
2018-03-18T02:52:36.729Z,6.03
2018-03-18T02:55:03.765Z,5.73
2018-03-18T02:57:30.106Z,6.33
2018-03-18T02:59:57.148Z,5.07
2018-03-18T03:02:23.455Z,4.87
2018-03-18T03:04:49.764Z,5.90
2018-03-18T03:07:16.062Z,5.27
2018-03-18T03:09:43.116Z,5.70
2018-03-18T03:12:09.451Z,5.87
2018-03-18T03:14:35.749Z,5.97
2018-03-18T03:17:02.047Z,5.43
2018-03-18T03:19:28.366Z,5.00
2018-03-18T03:21:54.686Z,5.30
2018-03-18T03:24:20.988Z,5.97
2018-03-18T03:26:48.063Z,5.20
2018-03-18T03:29:14.328Z,4.93
2018-03-18T03:31:40.608Z,6.70
2018-03-18T03:34:06.927Z,5.27
2018-03-18T03:36:33.955Z,5.97
2018-03-18T03:39:00.284Z,6.40
2018-03-18T03:41:26.564Z,5.30
2018-03-18T03:43:53.590Z,6.40
2018-03-18T03:46:20.646Z,6.50
2018-03-18T03:48:46.977Z,6.13
2018-03-18T03:51:13.299Z,7.20
2018-03-18T03:53:40.364Z,5.50
2018-03-18T03:56:06.706Z,6.20
2018-03-18T03:58:33.049Z,5.80
2018-03-18T04:00:59.336Z,5.73
2018-03-18T04:03:26.385Z,5.83
2018-03-18T04:05:53.419Z,5.50
2018-03-18T04:08:19.675Z,5.73
2018-03-18T04:10:45.999Z,6.03
2018-03-18T04:13:13.080Z,5.97
2018-03-18T04:15:39.453Z,5.27
2018-03-18T04:18:05.676Z,5.80
2018-03-18T04:20:32.011Z,6.53
2018-03-18T04:22:58.406Z,5.87
2018-03-18T04:25:24.732Z,6.23
2018-03-18T04:27:51.031Z,5.63
2018-03-18T04:30:18.071Z,5.40
2018-03-18T04:32:45.072Z,5.27
2018-03-18T04:35:11.382Z,5.03
2018-03-18T04:37:37.691Z,5.30
2018-03-18T04:40:04.729Z,5.33
2018-03-18T04:42:31.745Z,5.37
2018-03-18T04:44:58.116Z,4.97
2018-03-18T04:47:25.219Z,6.30
2018-03-18T04:49:51.525Z,5.50
2018-03-18T04:52:17.821Z,5.40
2018-03-18T04:54:44.831Z,5.17
2018-03-18T04:57:11.101Z,4.80
2018-03-18T04:59:44.970Z,4.80
2018-03-18T05:02:11.339Z,4.43
2018-03-18T05:04:38.389Z,4.87
2018-03-18T05:07:05.424Z,4.70
2018-03-18T05:09:32.459Z,4.70
2018-03-18T05:11:59.668Z,5.30
2018-03-18T05:14:26.020Z,4.80
2018-03-18T05:16:52.289Z,3.83
2018-03-18T05:19:19.375Z,5.33
2018-03-18T05:21:45.703Z,4.73
2018-03-18T05:24:12.003Z,4.67
2018-03-18T05:26:39.122Z,4.40
2018-03-18T05:29:05.423Z,5.43
2018-03-18T05:31:31.806Z,4.27
2018-03-18T05:33:58.862Z,4.30
2018-03-18T05:36:25.886Z,3.90
2018-03-18T05:38:52.200Z,4.87
2018-03-18T05:41:18.566Z,5.10
2018-03-18T05:43:45.724Z,4.40
2018-03-18T05:46:12.803Z,4.77
2018-03-18T05:48:39.621Z,4.30
2018-03-18T05:51:06.656Z,4.20
2018-03-18T05:53:33.673Z,4.17
2018-03-18T05:56:00.032Z,3.80
2018-03-18T05:58:26.374Z,4.97
2018-03-18T06:00:53.374Z,5.13
2018-03-18T06:03:19.650Z,4.37
2018-03-18T06:05:46.740Z,4.00
2018-03-18T06:08:13.021Z,4.70
2018-03-18T06:10:40.052Z,4.40
2018-03-18T06:13:07.342Z,5.00
2018-03-18T06:15:33.738Z,4.20
2018-03-18T06:18:00.102Z,3.60
2018-03-18T06:20:26.466Z,4.40
2018-03-18T06:22:52.784Z,5.23
2018-03-18T06:25:19.060Z,3.83
2018-03-18T06:27:45.365Z,3.93
2018-03-18T06:30:11.671Z,4.47
2018-03-18T06:32:37.934Z,4.03
2018-03-18T06:35:04.247Z,4.40
2018-03-18T06:37:30.566Z,4.27
2018-03-18T06:39:56.875Z,4.70
2018-03-18T06:42:23.935Z,3.87
2018-03-18T06:44:50.235Z,4.47
2018-03-18T06:47:17.276Z,3.40
2018-03-18T06:49:45.059Z,4.00
2018-03-18T06:52:12.159Z,3.10
2018-03-18T06:54:38.480Z,4.30
2018-03-18T06:57:04.776Z,3.40
2018-03-18T06:59:31.832Z,4.10
2018-03-18T07:01:58.104Z,3.90
2018-03-18T07:04:24.388Z,3.70
2018-03-18T07:06:51.462Z,4.47
2018-03-18T07:09:17.725Z,3.40
2018-03-18T07:11:44.041Z,3.40
2018-03-18T07:14:10.404Z,4.50
2018-03-18T07:16:36.766Z,5.27
2018-03-18T07:19:03.878Z,4.07
2018-03-18T07:21:30.190Z,2.70
2018-03-18T07:23:56.511Z,4.00
2018-03-18T07:26:22.878Z,4.00
2018-03-18T07:28:49.263Z,3.43
2018-03-18T07:31:15.701Z,3.60
2018-03-18T07:33:42.023Z,4.50
2018-03-18T07:36:08.299Z,3.73
2018-03-18T07:38:35.444Z,3.97
2018-03-18T07:41:01.763Z,4.10
2018-03-18T07:43:28.068Z,3.83
2018-03-18T07:45:54.430Z,3.43
2018-03-18T07:48:20.730Z,3.20
2018-03-18T07:50:47.093Z,3.17
2018-03-18T07:53:13.398Z,4.00
2018-03-18T07:55:39.714Z,3.37
2018-03-18T07:58:06.008Z,4.90
2018-03-18T08:00:33.052Z,3.17
2018-03-18T08:02:59.328Z,4.10
2018-03-18T08:05:25.648Z,3.67
2018-03-18T08:07:51.942Z,3.53
2018-03-18T08:10:18.243Z,4.33
2018-03-18T08:12:44.957Z,3.07
2018-03-18T08:15:11.285Z,3.93
2018-03-18T08:17:37.629Z,3.80
2018-03-18T08:20:03.970Z,3.00
2018-03-18T08:22:30.304Z,2.83
2018-03-18T08:24:56.623Z,3.97
2018-03-18T08:27:22.967Z,3.77
2018-03-18T08:29:49.384Z,3.67
2018-03-18T08:32:15.703Z,3.37
2018-03-18T08:34:42.171Z,3.30
2018-03-18T08:37:08.611Z,3.70
2018-03-18T08:39:34.983Z,3.90
2018-03-18T08:42:02.191Z,3.30
2018-03-18T08:44:28.504Z,4.80
2018-03-18T08:46:54.812Z,3.27
2018-03-18T08:49:21.138Z,3.63
2018-03-18T08:51:47.548Z,3.73
2018-03-18T08:54:14.967Z,3.77
2018-03-18T08:56:41.321Z,4.10
2018-03-18T08:59:07.702Z,3.33
2018-03-18T09:01:34.105Z,3.30
2018-03-18T09:04:00.462Z,3.57
2018-03-18T09:06:26.841Z,3.43
2018-03-18T09:08:53.975Z,3.97
2018-03-18T09:11:20.269Z,3.80
2018-03-18T09:13:46.571Z,4.10
2018-03-18T09:16:12.937Z,3.70
2018-03-18T09:18:39.268Z,3.50
2018-03-18T09:21:05.638Z,3.63
2018-03-18T09:23:33.406Z,3.20
2018-03-18T09:26:00.640Z,3.90
2018-03-18T09:28:26.972Z,3.83
2018-03-18T09:30:53.367Z,2.90
2018-03-18T09:33:20.446Z,3.67
2018-03-18T09:35:46.756Z,3.60
2018-03-18T09:38:13.828Z,4.20
2018-03-18T09:40:40.183Z,4.07
2018-03-18T09:43:06.789Z,3.80
2018-03-18T09:45:33.115Z,4.20
2018-03-18T09:47:59.455Z,3.40
2018-03-18T09:50:25.804Z,3.20
2018-03-18T09:52:52.229Z,4.17
2018-03-18T09:55:18.623Z,4.20
2018-03-18T09:57:45.673Z,3.57
2018-03-18T10:00:12.808Z,3.50
2018-03-18T10:02:39.870Z,3.60
2018-03-18T10:05:07.937Z,3.27
2018-03-18T10:07:35.006Z,2.97
2018-03-18T10:10:01.400Z,3.43
2018-03-18T10:12:27.686Z,3.67
2018-03-18T10:14:53.961Z,4.17
2018-03-18T10:17:20.259Z,3.33
2018-03-18T10:19:46.595Z,3.60
2018-03-18T10:22:12.893Z,3.90
2018-03-18T10:24:39.328Z,4.07
2018-03-18T10:27:05.715Z,3.50
2018-03-18T10:29:32.094Z,3.50
2018-03-18T10:31:59.211Z,4.43
2018-03-18T10:34:25.508Z,3.93
2018-03-18T10:36:51.804Z,3.77
2018-03-18T10:39:18.148Z,3.83
2018-03-18T10:41:44.469Z,4.10
2018-03-18T10:44:10.928Z,3.30
2018-03-18T10:46:37.252Z,3.37
2018-03-18T10:49:03.644Z,3.43
2018-03-18T10:51:30.789Z,3.10
2018-03-18T10:53:57.870Z,3.80
2018-03-18T10:56:24.334Z,3.57
2018-03-18T10:58:50.653Z,4.33
2018-03-18T11:01:23.024Z,3.13
2018-03-18T11:03:55.652Z,5.20
2018-03-18T11:06:22.022Z,3.90
2018-03-18T11:08:48.481Z,4.53
2018-03-18T11:11:14.755Z,3.47
2018-03-18T11:13:41.831Z,4.10
2018-03-18T11:16:08.210Z,3.97
2018-03-18T11:18:34.515Z,3.80
2018-03-18T11:21:00.820Z,4.23
2018-03-18T11:23:27.181Z,4.30
2018-03-18T11:25:53.594Z,3.77
2018-03-18T11:28:19.905Z,3.77
2018-03-18T11:30:47.054Z,4.40
2018-03-18T11:33:14.126Z,4.73
2018-03-18T11:35:40.492Z,4.47
2018-03-18T11:38:06.854Z,3.50
2018-03-18T11:40:33.970Z,4.03
2018-03-18T11:43:00.356Z,3.50
2018-03-18T11:45:26.664Z,3.27
2018-03-18T11:47:53.788Z,4.60
2018-03-18T11:50:20.479Z,4.23
2018-03-18T11:52:46.960Z,4.93
2018-03-18T11:55:13.309Z,4.20
2018-03-18T11:57:39.863Z,4.37
2018-03-18T12:00:07.037Z,5.30
2018-03-18T12:02:33.331Z,4.80
2018-03-18T12:04:59.623Z,4.20
2018-03-18T12:07:25.948Z,4.60
2018-03-18T12:09:52.255Z,5.10
2018-03-18T12:12:25.612Z,4.60
2018-03-18T12:14:51.958Z,6.03
2018-03-18T12:17:18.378Z,4.70
2018-03-18T12:19:44.812Z,5.67
2018-03-18T12:22:11.176Z,5.20
2018-03-18T12:24:37.493Z,5.17
2018-03-18T12:27:04.544Z,5.00
2018-03-18T12:29:31.685Z,4.90
2018-03-18T12:31:58.026Z,5.63
2018-03-18T12:34:25.182Z,4.70
2018-03-18T12:36:51.593Z,5.23
2018-03-18T12:39:18.015Z,4.80
2018-03-18T12:41:44.339Z,4.83
2018-03-18T12:44:10.677Z,4.77
2018-03-18T12:46:37.868Z,5.07
2018-03-18T12:49:04.942Z,3.90
2018-03-18T12:51:31.318Z,4.70
2018-03-18T12:53:57.690Z,4.20
2018-03-18T12:56:24.010Z,5.47
2018-03-18T12:58:51.076Z,4.47
2018-03-18T13:01:17.409Z,5.70
2018-03-18T13:03:43.752Z,4.93
2018-03-18T13:06:10.096Z,3.50
2018-03-18T13:08:36.453Z,5.13
2018-03-18T13:11:02.806Z,4.57
2018-03-18T13:13:29.853Z,4.43
2018-03-18T13:15:56.973Z,4.23
2018-03-18T13:18:23.302Z,4.73
2018-03-18T13:20:49.664Z,4.70
2018-03-18T13:23:16.758Z,4.80
2018-03-18T13:25:49.976Z,4.30
2018-03-18T13:28:16.339Z,5.40
2018-03-18T13:30:43.424Z,4.27
2018-03-18T13:33:09.720Z,4.93
2018-03-18T13:35:36.821Z,4.60
2018-03-18T13:38:03.177Z,5.20
2018-03-18T13:40:29.527Z,3.80
2018-03-18T13:42:56.619Z,5.43
2018-03-18T13:45:22.972Z,4.47
2018-03-18T13:47:49.298Z,4.10
2018-03-18T13:50:15.591Z,4.30
2018-03-18T13:52:41.921Z,4.50
2018-03-18T13:55:08.943Z,5.13
2018-03-18T13:57:35.330Z,5.43
2018-03-18T14:00:01.885Z,4.97
2018-03-18T14:02:28.215Z,4.43
2018-03-18T14:04:55.473Z,5.37
2018-03-18T14:07:21.770Z,4.30
2018-03-18T14:09:48.082Z,5.10
2018-03-18T14:12:15.167Z,4.90
2018-03-18T14:14:41.473Z,4.90
2018-03-18T14:17:07.841Z,5.90
2018-03-18T14:19:35.535Z,5.27
2018-03-18T14:22:02.573Z,5.10
2018-03-18T14:24:28.907Z,4.57
2018-03-18T14:26:55.264Z,5.03
2018-03-18T14:29:22.464Z,4.80
2018-03-18T14:31:48.955Z,4.50
2018-03-18T14:34:16.033Z,5.60
2018-03-18T14:36:42.334Z,4.33
2018-03-18T14:39:08.708Z,4.77
2018-03-18T14:41:35.032Z,5.40
2018-03-18T14:44:01.332Z,4.17
2018-03-18T14:46:27.665Z,4.40
2018-03-18T14:48:53.974Z,4.27
2018-03-18T14:51:21.033Z,5.03
2018-03-18T14:53:48.127Z,5.10
2018-03-18T14:56:14.473Z,5.00
2018-03-18T14:58:40.902Z,5.40
2018-03-18T15:01:07.943Z,4.33
2018-03-18T15:03:34.271Z,4.97
2018-03-18T15:06:00.646Z,4.73
2018-03-18T15:08:27.725Z,4.47
2018-03-18T15:10:54.097Z,4.53
2018-03-18T15:13:21.173Z,4.67
2018-03-18T15:15:48.286Z,5.23
2018-03-18T15:18:14.651Z,5.50
2018-03-18T15:20:41.698Z,4.40
2018-03-18T15:23:08.010Z,5.10
2018-03-18T15:25:35.348Z,5.50
2018-03-18T15:28:02.443Z,3.90
2018-03-18T15:30:29.515Z,4.73
2018-03-18T15:32:55.873Z,4.30
2018-03-18T15:35:22.190Z,4.80
2018-03-18T15:37:48.572Z,5.00
2018-03-18T15:40:14.969Z,5.43
2018-03-18T15:42:41.381Z,5.13
2018-03-18T15:45:08.160Z,5.03
2018-03-18T15:47:35.986Z,5.30
2018-03-18T15:50:02.346Z,4.73
2018-03-18T15:52:28.814Z,4.80
2018-03-18T15:54:55.152Z,4.67
2018-03-18T15:57:21.512Z,4.37
2018-03-18T15:59:47.916Z,4.83
2018-03-18T16:02:14.304Z,4.50
2018-03-18T16:04:40.633Z,4.80
2018-03-18T16:07:07.040Z,4.50
2018-03-18T16:09:33.526Z,4.13
2018-03-18T16:11:59.917Z,4.80
2018-03-18T16:14:26.238Z,4.83
2018-03-18T16:16:52.647Z,4.37
2018-03-18T16:19:20.637Z,4.33
2018-03-18T16:21:47.661Z,4.50
2018-03-18T16:24:13.961Z,4.87
2018-03-18T16:26:40.295Z,3.90
2018-03-18T16:29:25.164Z,4.90
2018-03-18T16:31:51.478Z,4.93
2018-03-18T16:34:18.579Z,5.10
2018-03-18T16:36:44.910Z,5.10
2018-03-18T16:39:12.133Z,4.40
2018-03-18T16:41:38.513Z,5.10
2018-03-18T16:44:04.900Z,4.80
2018-03-18T16:46:31.270Z,5.47
2018-03-18T16:48:58.469Z,4.10
2018-03-18T16:51:24.731Z,4.13
2018-03-18T16:53:51.162Z,4.33
2018-03-18T16:56:17.495Z,4.77
2018-03-18T16:58:43.814Z,4.00
2018-03-18T17:01:10.128Z,4.60
2018-03-18T17:03:38.518Z,4.13
2018-03-18T17:06:05.608Z,4.40
2018-03-18T17:08:32.804Z,4.70
2018-03-18T17:10:59.568Z,4.23
2018-03-18T17:13:26.017Z,4.10
2018-03-18T17:15:53.722Z,4.60
2018-03-18T17:18:20.015Z,4.80
2018-03-18T17:20:47.085Z,4.33
2018-03-18T17:23:13.437Z,5.17
2018-03-18T17:25:39.800Z,5.03
2018-03-18T17:28:06.079Z,4.27
2018-03-18T17:30:33.132Z,4.83
2018-03-18T17:32:59.440Z,5.03
2018-03-18T17:35:26.593Z,4.07
2018-03-18T17:37:53.678Z,4.37
2018-03-18T17:40:20.026Z,4.57
2018-03-18T17:42:47.499Z,4.20
2018-03-18T17:48:48.254Z,3.70
2018-03-18T17:51:33.373Z,4.03
2018-03-18T17:54:18.354Z,4.73
2018-03-18T17:56:44.675Z,4.30
2018-03-18T17:59:11.781Z,4.03
2018-03-18T18:01:38.154Z,5.03
2018-03-18T18:04:05.294Z,4.87
2018-03-18T18:06:32.513Z,4.87
2018-03-18T18:08:58.866Z,5.30
2018-03-18T18:11:25.199Z,4.40
2018-03-18T18:13:52.201Z,3.87
2018-03-18T18:16:18.547Z,5.00
2018-03-18T18:18:44.901Z,4.73
2018-03-18T18:21:11.446Z,4.73
2018-03-18T18:23:37.774Z,5.20
2018-03-18T18:26:04.106Z,5.67
2018-03-18T18:28:30.674Z,5.00
2018-03-18T18:30:57.871Z,4.43
2018-03-18T18:33:24.953Z,5.00
2018-03-18T18:35:52.066Z,4.30
2018-03-18T18:38:18.464Z,3.97
2018-03-18T18:40:44.879Z,4.13
2018-03-18T18:43:12.103Z,4.40
2018-03-18T18:45:38.497Z,5.13
2018-03-18T18:48:04.922Z,4.60
2018-03-18T18:50:31.381Z,4.97
2018-03-18T18:52:59.776Z,4.33
2018-03-18T18:55:26.166Z,5.17
2018-03-18T18:57:52.526Z,4.60
2018-03-18T19:00:18.874Z,4.77
2018-03-18T19:02:45.254Z,4.37
2018-03-18T19:05:11.539Z,5.50
2018-03-18T19:07:37.854Z,4.43
2018-03-18T19:10:05.267Z,5.60
2018-03-18T19:12:32.705Z,5.43
2018-03-18T19:14:59.828Z,4.93
2018-03-18T19:17:26.161Z,5.30
2018-03-18T19:19:52.486Z,4.60
2018-03-18T19:22:18.823Z,4.73
2018-03-18T19:24:45.161Z,5.43
2018-03-18T19:27:11.476Z,5.13
2018-03-18T19:29:37.829Z,5.43
2018-03-18T19:32:04.115Z,5.10
2018-03-18T19:34:30.500Z,6.00
2018-03-18T19:36:58.531Z,5.00
2018-03-18T19:39:24.845Z,5.77
2018-03-18T19:41:51.178Z,4.80
2018-03-18T19:44:17.473Z,4.33
2018-03-18T19:46:44.557Z,5.57
2018-03-18T19:49:11.110Z,5.90
2018-03-18T19:51:37.461Z,4.73
2018-03-18T19:54:03.794Z,5.40
2018-03-18T19:56:30.188Z,5.03
2018-03-18T19:58:56.484Z,4.60
2018-03-18T20:01:23.570Z,5.13
2018-03-18T20:03:50.017Z,4.70
2018-03-18T20:06:17.081Z,3.50
2018-03-18T20:08:43.420Z,5.13
2018-03-18T20:11:09.735Z,5.43
2018-03-18T20:13:36.051Z,5.57
2018-03-18T20:16:02.365Z,5.40
2018-03-18T20:18:28.843Z,5.20
2018-03-18T20:20:55.276Z,5.10
2018-03-18T20:23:21.569Z,5.50
2018-03-18T20:25:48.723Z,5.27
2018-03-18T20:28:15.051Z,4.47
2018-03-18T20:30:41.489Z,7.33
2018-03-18T20:33:07.842Z,5.10
2018-03-18T20:35:34.198Z,5.00
2018-03-18T20:38:00.500Z,4.90
2018-03-18T20:40:26.848Z,4.43
2018-03-18T20:43:00.125Z,4.47
2018-03-18T20:45:26.457Z,5.60
2018-03-18T20:47:52.805Z,4.90
2018-03-18T20:50:19.138Z,4.50
2018-03-18T20:52:45.498Z,5.77
2018-03-18T20:55:12.578Z,4.63
2018-03-18T20:57:38.905Z,4.90
2018-03-18T21:00:05.273Z,5.00
2018-03-18T21:02:31.639Z,4.67
2018-03-18T21:04:58.672Z,4.70
2018-03-18T21:07:24.990Z,4.80
2018-03-18T21:09:51.307Z,4.63
2018-03-18T21:12:17.610Z,4.80
2018-03-18T21:14:43.884Z,4.57
2018-03-18T21:17:10.221Z,5.83
2018-03-18T21:19:36.676Z,4.30
2018-03-18T21:22:03.778Z,5.40
2018-03-18T21:24:31.131Z,4.27
2018-03-18T21:26:57.458Z,5.07
2018-03-18T21:29:23.838Z,5.23
2018-03-18T21:31:50.127Z,5.20
2018-03-18T21:34:16.485Z,5.57
2018-03-18T21:36:42.807Z,5.53
2018-03-18T21:39:09.137Z,5.30
2018-03-18T21:41:36.070Z,5.57
2018-03-18T21:44:02.388Z,4.90
2018-03-18T21:46:28.687Z,6.00
2018-03-18T21:48:54.994Z,6.30
2018-03-18T21:51:21.331Z,4.90
2018-03-18T21:53:47.636Z,5.10
2018-03-18T21:56:13.947Z,4.73
2018-03-18T21:58:40.216Z,4.60
2018-03-18T22:01:06.666Z,6.23
2018-03-18T22:03:33.668Z,5.37
2018-03-18T22:06:00.032Z,5.97
2018-03-18T22:08:26.331Z,6.20
2018-03-18T22:10:52.611Z,5.20
2018-03-18T22:13:18.940Z,5.40
2018-03-18T22:15:46.040Z,4.63
2018-03-18T22:18:12.355Z,5.33
2018-03-18T22:20:38.663Z,6.10
2018-03-18T22:23:04.926Z,6.00
2018-03-18T22:25:31.251Z,5.00
2018-03-18T22:27:57.655Z,4.90
2018-03-18T22:30:23.937Z,5.30
2018-03-18T22:32:50.223Z,5.40
2018-03-18T22:35:16.526Z,5.60
2018-03-18T22:37:43.602Z,5.63
2018-03-18T22:40:09.992Z,4.60
2018-03-18T22:42:36.246Z,5.97
2018-03-18T22:45:03.288Z,6.50
2018-03-18T22:47:30.324Z,4.93
2018-03-18T22:49:56.620Z,5.20
2018-03-18T22:52:22.950Z,5.40
2018-03-18T22:54:49.310Z,4.80
2018-03-18T22:57:15.616Z,5.83
2018-03-18T22:59:41.914Z,4.83
2018-03-18T23:02:08.255Z,5.17
2018-03-18T23:04:34.579Z,5.57
2018-03-18T23:07:00.877Z,4.87
2018-03-18T23:09:27.954Z,5.80
2018-03-18T23:11:54.310Z,5.07
2018-03-18T23:14:20.617Z,5.60
2018-03-18T23:16:46.953Z,5.30
2018-03-18T23:19:13.271Z,4.70
2018-03-18T23:21:39.611Z,5.30
2018-03-18T23:24:05.949Z,5.00
2018-03-18T23:26:32.315Z,5.00
2018-03-18T23:28:58.605Z,5.10
2018-03-18T23:31:24.896Z,5.30
2018-03-18T23:33:51.194Z,6.60
2018-03-18T23:36:17.533Z,5.27
2018-03-18T23:38:43.887Z,5.40
2018-03-18T23:41:10.294Z,5.63
2018-03-18T23:43:37.438Z,6.50
2018-03-18T23:46:03.740Z,4.80
2018-03-18T23:48:30.048Z,4.60
2018-03-18T23:50:57.078Z,5.63
2018-03-18T23:53:23.384Z,5.30
2018-03-18T23:55:49.674Z,5.20
2018-03-18T23:58:15.996Z,5.93
